Fall Series I                                 
                                  Overall Male                                  
                                 October 6, 2019                                

For result questions, please e-mail John Garner at raceresults@pprrun.org.

If you have other questions about the race, please contact the race directors at fallseries@pprrun.org

Weather: Sunny with temps in the 50s and blustery north winds.

OPlc GPlc AGPlc AGrp   Bib  Name                   Age Sex City                 St Gun      Chip    Pace    TeamName                     
   1    1     1 M25-29  216 Stephen VanGampleare    29  M  Colorado Springs     CO 0:17:12  0:17:11 0:05:22 Fossil Fueled 
   2    2     1 M30-34  147 Brent Bailey            33  M  Colorado Springs     CO 0:17:12  0:17:12 0:05:23 Jurasskicked 
   3    3     2 M30-34  292 Kyle Anibas             31  M  Colorado Springs     CO 0:17:43  0:17:42 0:05:32  
   4    4     3 M30-34  259 Jason Brosseau          34  M  Colorado Springs     CO 0:17:46  0:17:45 0:05:33  
   5    5     1 M20-24 1046 Collin Bruske           20  M  Colorado Springs     CO 0:17:48  0:17:47 0:05:33  
   6    6     1 M35-39  246 Derick Williamson       38  M  Colorado Springs     CO 0:17:55  0:17:53 0:05:35  
   7    7     4 M30-34 1617 Ryan Hafer              33  M  Colorado Springs     CO 0:18:03  0:18:02 0:05:38  
   8    8     2 M35-39   70 Branden Rakita          38  M  Colorado Springs     CO 0:18:14  0:18:12 0:05:41  
   9    9     1 M40-44 1649 Marc Johnson            42  M  Monument             CO 0:18:16  0:18:14 0:05:42 Tri-Lakes Runners 
  10   10     3 M35-39  198 Vitaly Stepanov         37  M  Colorado Springs     CO 0:18:24  0:18:24 0:05:45  
  11   11     2 M20-24  181 Grehson Smith           21  M  Colorado Springs     CO 0:18:28  0:18:26 0:05:46 Tri-Lakes Runners 
  12   12     1 M15-19 1591 Alexander Fernandez     19  M  Monument             CO 0:18:31  0:18:29 0:05:47 Tri-Lakes Runners 
  13   13     1 M45-49 1674 Toby Lefere             48  M  Colorado Springs     CO 0:18:43  0:18:41 0:05:50  
  14   14     5 M30-34   56 Nick Parton             33  M  Colorado Springs     CO 0:18:53  0:18:53 0:05:54 Fossil Fueled 
  15   15     4 M35-39   27 Jason Miranov           36  M  Colorado Springs     CO 0:18:55  0:18:53 0:05:54  
  16   16     2 M25-29   66 Seth Polich             26  M  Colorado Springs     CO 0:19:03  0:19:02 0:05:57 Tri-Lakes Runners 
  17   17     5 M35-39 1639 Chad Holderbaum         39  M  Colorado Springs     CO 0:19:13  0:19:12 0:06:00  
  18   18     2 M40-44  336 Marcus Corbett          42  M  Colorado Springs     CO 0:19:19  0:19:18 0:06:02 Fossil Fueled 
  19   19     2 M45-49  295 Bryan Beiner            46  M  Colorado Springs     CO 0:19:22  0:19:20 0:06:03  
  20   20     3 M40-44   64 David Philipps          42  M  Colorado Springs     CO 0:19:27  0:19:27 0:06:05  

OPlc GPlc AGPlc AGrp   Bib  Name                   Age Sex City                 St Gun      Chip    Pace    TeamName                     
  21   21     3 M45-49  209 Wes Thurman             47  M  Colorado Springs     CO 0:19:30  0:19:28 0:06:05  
  22   22     4 M40-44 1631 Keith Henry             42  M  Manitou Springs      CO 0:19:38  0:19:36 0:06:08 Storybook Brewery 
  23   23     3 M20-24  197 Javier Benedicto        23  M  Colorado Springs     CO 0:19:59  0:19:58 0:06:14  
  25   24     6 M35-39 1269 Steve Crumpler          37  M  Colorado Springs     CO 0:20:09  0:20:07 0:06:17 Jurasskicked 
  26   25     1 M50-54  277 Brett Wilson            51  M  Colorado Springs     CO 0:20:11  0:20:09 0:06:18  
  27   26     5 M40-44  296 Cody Cook               43  M  Colorado Springs     CO 0:20:13  0:20:11 0:06:18  
  29   27     3 M25-29  284 Marcus Hatter           27  M  Colorado Springs     CO 0:20:26  0:20:15 0:06:20  
  30   28     4 M25-29   83 Sean Rimmer             27  M  Colorado Springs     CO 0:20:19  0:20:15 0:06:20  
  31   29     4 M45-49   85 Duane Roberson          47  M  Colorado Springs     CO 0:20:29  0:20:26 0:06:23  
  33   30     5 M45-49  228 Jay Watts               47  M  Falcon               CO 0:20:35  0:20:31 0:06:25  
  34   31     2 M50-54 1646 Scott Hurlbert          54  M  Colorado Springs     CO 0:20:41  0:20:37 0:06:27  
  35   32     7 M35-39 1570 Joel Dagnillo           37  M  Colorado Springs     CO 0:20:44  0:20:40 0:06:28  
  36   33     2 M15-19  264 Joe Jardeleza           15  M  Colorado Springs     CO 0:20:46  0:20:41 0:06:28  
  38   34     8 M35-39   32 Jeffrey Mohrmann        37  M  Colorado Springs     CO 0:20:53  0:20:50 0:06:31 Fossil Fueled 
  39   35     3 M15-19  338 Jacob Otero             17  M  Colorado Springs     CO 0:20:58  0:20:54 0:06:32 Lost Friends 
  40   36     4 M20-24 1580 Gregory Dotseth         24  M  Colorado Springs     CO 0:21:03  0:21:00 0:06:34  
  41   37     5 M25-29  307 Michael Walton          28  M  Colorado Springs     CO 0:21:07  0:21:05 0:06:35  
  43   38     3 M50-54   14 Michael McGann          52  M  Colorado Springs     CO 0:21:13  0:21:09 0:06:37  
  44   39     1 M55-59 1587 Alex Escarcega          55  M  Peyton               CO 0:21:22  0:21:18 0:06:39  
  45   40     4 M50-54 1671 David Kuritar           52  M  Colorado Springs     CO 0:21:27  0:21:23 0:06:41  

OPlc GPlc AGPlc AGrp   Bib  Name                   Age Sex City                 St Gun      Chip    Pace    TeamName                     
  46   41     6 M40-44 1647 Timothy Jardeleza       42  M  Colorado Springs     CO 0:21:30  0:21:25 0:06:42  
  47   42     7 M40-44 1696 Patrick Lynch           44  M  Colorado Springs     CO 0:21:38  0:21:33 0:06:44  
  48   43     6 M30-34 1569 Stephen Cucchiara       32  M  Colorado Springs     CO 0:21:36  0:21:34 0:06:44 Red Leg 
  49   44     6 M45-49   24 Joe Miller              47  M  Colorado Springs     CO 0:21:40  0:21:36 0:06:45 Butternut Squashes 
  51   45     5 M50-54 1690 Robert Little           50  M  Peyton               CO 0:21:50  0:21:42 0:06:47  
  52   46     6 M50-54  226 Mike Wasson             53  M  Colorado Springs     CO 0:21:51  0:21:47 0:06:48  
  53   47     8 M40-44   44 Jason Nunnery           42  M  Colorado Springs     CO 0:21:53  0:21:47 0:06:48  
  54   48     9 M40-44  221 Shawn Walker            42  M  Colorado Springs     CO 0:22:00  0:21:55 0:06:51  
  55   49     2 M55-59  148 Tom Seeman              57  M  Colorado Springs     CO 0:22:09  0:22:04 0:06:54  
  56   50    10 M40-44 1596 Jeffrey Fowler          40  M  Colorado Springs     CO 0:22:28  0:22:04 0:06:54  
  57   51     7 M45-49 1664 Nathaniel Kisergreen    49  M  Colorado Springs     CO 0:22:17  0:22:11 0:06:56  
  58   52     7 M50-54 1662 Robbie Keyser           51  M  Colorado Springs     CO 0:22:18  0:22:12 0:06:56  
  59   53     6 M25-29  196 Dane Steil              28  M  Denver               CO 0:22:41  0:22:14 0:06:57  
  61   54     8 M50-54  339 Rob Gilliam             50  M  Colorado Springs     CO 0:22:52  0:22:29 0:07:02  
  62   55     7 M25-29 1669 Malcolm Konik           25  M  Colorado Springs     CO 0:22:41  0:22:31 0:07:02  
  63   56     9 M35-39 1655 Craig Kaufmann          39  M  Colorado Springs     CO 0:22:37  0:22:33 0:07:03 Beer Pressure 
  64   57    11 M40-44   51 Jeremey Parkhurst       40  M  Colorado Springs     CO 0:22:44  0:22:37 0:07:04 Brass Brewing 
  65   58     3 M55-59 1590 Michael Everson         55  M  Colorado Springs     CO 0:22:43  0:22:39 0:07:05 Jurasskicked 
  66   59    10 M35-39 1665 Daniel Kitchie          35  M  Colorado Springs     CO 0:22:52  0:22:42 0:07:06  
  67   60    11 M35-39 1069 James Burke             37  M  Colorado Springs     CO 0:22:55  0:22:44 0:07:06  

OPlc GPlc AGPlc AGrp   Bib  Name                   Age Sex City                 St Gun      Chip    Pace    TeamName                     
  68   61    12 M40-44 1183 Jeff Courtright         40  M  Colorado Springs     CO 0:22:48  0:22:44 0:07:06 Beer Pressure 
  69   62     8 M25-29 1692 Aaron Lubelski          26  M  Colorado Springs     CO 0:22:52  0:22:46 0:07:07  
  70   63     4 M55-59   54 Tim Allison             58  M  Colorado Springs     CO 0:22:58  0:22:51 0:07:08  
  71   64     9 M25-29  249 Vinnie Yanga            28  M  Colorado Springs     CO 0:23:02  0:22:53 0:07:09  
  72   65     7 M30-34  726 Roland Brodeur          32  M  Colorado Springs     CO 0:23:04  0:22:56 0:07:10  
  74   66     8 M30-34  257 Bryan Balliett          30  M  Colorado Springs     CO 0:23:13  0:23:06 0:07:13 Butternut Squashes 
  75   67    13 M40-44  285 Richard Hedlind         43  M  Colorado Springs     CO 0:23:10  0:23:07 0:07:13  
  76   68     8 M45-49 1138 Rob Cashell             49  M  Colorado Springs     CO 0:23:19  0:23:11 0:07:15  
  77   69     9 M30-34  293 Piotr Bartkow           32  M  Colorado Springs     CO 0:23:27  0:23:15 0:07:16  
  78   70     9 M45-49  541 David Bloomfield        49  M  Colorado Springs     CO 0:23:28  0:23:22 0:07:18 Rusted Runners 
  81   71    10 M30-34 1016 Allen Browne            32  M  Colorado Springs     CO 0:23:49  0:23:39 0:07:23  
  83   72    14 M40-44 1172 Robert Comstock         44  M  Colorado Springs     CO 0:23:59  0:23:51 0:07:27  
  88   73    12 M35-39  111 Joe Rozak               38  M  Colorado Springs     CO 0:24:13  0:24:05 0:07:32  
  89   74    13 M35-39   89 Hans Robinson           37  M  Colorado Springs     CO 0:24:12  0:24:06 0:07:32 AltiDudes 2.0 
  91   75     5 M20-24  306 Luke Walton             24  M  Colorado Springs     CO 0:24:13  0:24:11 0:07:33  
  92   76     1 M65-69   72 Bernie Redlinger        69  M  Colorado Springs     CO 0:24:18  0:24:11 0:07:33  
  94   77    10 M45-49  334 Ross Hadley             48  M  Peyton               CO 0:24:26  0:24:21 0:07:37  
  95   78     9 M50-54  302 Joe Morales             53  M  Colorado Springs     CO 0:24:44  0:24:24 0:07:38  
  97   79    11 M45-49   86 Ruben Anaya             46  M  Colorado Springs     CO 0:24:34  0:24:28 0:07:39  
  98   80    14 M35-39  184 Daniel Bay              35  M  Colorado Springs     CO 0:24:33  0:24:29 0:07:39 Beer Pressure 

OPlc GPlc AGPlc AGrp   Bib  Name                   Age Sex City                 St Gun      Chip    Pace    TeamName                     
  99   81    15 M35-39  143 James Baginski          37  M  Colorado Springs     CO 0:25:15  0:24:31 0:07:40 Earth Thinkers 
 100   82    15 M40-44  154 Darren Serna            40  M  Colorado Springs     CO 0:24:57  0:24:39 0:07:42  
 101   83    16 M35-39  452 Keith Blessing          39  M  Colorado Springs     CO 0:25:04  0:24:49 0:07:45 SAAKI 
 102   84     2 M65-69  129 Michael Schenk          66  M  Colorado Springs     CO 0:24:54  0:24:51 0:07:46  
 104   85    11 M30-34  179 John Skolout            31  M  Colorado Springs     CO 0:25:00  0:24:53 0:07:47  
 106   86    17 M35-39   88 Bruce Robinson          37  M  Colorado Springs     CO 0:25:12  0:24:54 0:07:47  
 107   87    12 M45-49  220 Paul Wakino             46  M  Colorado Springs     CO 0:25:27  0:24:57 0:07:48 Herd of Nerds 
 108   88    16 M40-44 1573 Darryl Deighton         44  M  Colorado Springs     CO 0:25:05  0:24:57 0:07:48  
 110   89    10 M50-54  117 John Sacco              51  M  Colorado Springs     CO 0:25:19  0:25:03 0:07:50 SAAKI 
 111   90    11 M50-54  290 Will Snyder             54  M  Colorado Springs     CO 0:25:13  0:25:04 0:07:50  
 112   91     5 M55-59  113 Jim Rudolph             57  M  Colorado Springs     CO 0:25:17  0:25:06 0:07:51 SAAKI 
 113   92    17 M40-44  310 Chris Young             41  M  Colorado Springs     CO 0:25:20  0:25:13 0:07:53  
 114   93    13 M45-49 1109 Stephen Camacho         49  M  Colorado Springs     CO 0:25:26  0:25:15 0:07:53  
 115   94    12 M30-34   15 Sean McGrath            32  M  Colorado Springs     CO 0:25:43  0:25:32 0:07:59  
 116   95    14 M45-49 1651 Jeremy Joiner           45  M  Colorado Springs     CO 0:26:13  0:25:33 0:07:59 Herd of Nerds 
 117   96    15 M45-49 1689 Steve Lincoln           48  M  Colorado Springs     CO 0:25:56  0:25:34 0:07:59  
 118   97     1 M60-64  232 Al Wegner               61  M  Colorado Springs     CO 0:25:40  0:25:35 0:08:00  
 119   98    18 M35-39   53 Stephen Parnell         35  M  Monument             CO 0:26:14  0:25:41 0:08:02  
 120   99    16 M45-49 1668 Kevin Komassa           45  M  Colorado Springs     CO 0:25:56  0:25:47 0:08:03  
 124  100     3 M65-69   50 Richard Park            66  M  Colorado Springs     CO 0:26:01  0:25:54 0:08:06  

OPlc GPlc AGPlc AGrp   Bib  Name                   Age Sex City                 St Gun      Chip    Pace    TeamName                     
 126  101     6 M55-59   38 Kevin Murdock           55  M  Colorado Springs     CO 0:26:14  0:26:00 0:08:08  
 127  102     7 M55-59   37 David Mulligan          58  M  Colorado Springs     CO 0:26:20  0:26:01 0:08:08  
 129  103    12 M50-54 1632 Chuck Herbst            51  M  Colorado Springs     CO 0:26:19  0:26:03 0:08:08  
 131  104    13 M50-54  185 Peter Solie             53  M  Colorado Springs     CO 0:26:25  0:26:06 0:08:09 SAAKI 
 133  105    14 M50-54 1638 John Hilyard            50  M  Colorado Springs     CO 0:26:24  0:26:07 0:08:10 AltiDudes 2.0 
 137  106    13 M30-34 1606 Julian Garduno          34  M  Colorado Springs     CO 0:26:40  0:26:20 0:08:14  
 139  107    18 M40-44   92 Oliver Robinson         41  M  Colorado Springs     CO 0:26:59  0:26:22 0:08:14  
 140  108     2 M60-64  158 Louie Serna             62  M  Colorado Springs     CO 0:26:47  0:26:27 0:08:16  
 142  109     8 M55-59  238 Rudy Wencl              55  M  Colorado Springs     CO 0:26:46  0:26:31 0:08:17  
 144  110    19 M35-39 1622 Zach Hammel             37  M  Colorado Springs     CO 0:26:54  0:26:35 0:08:18  
 145  111    15 M50-54  281 Gregory Beckum          51  M  Divide               CO 0:26:54  0:26:38 0:08:19 AltiDudes 2.0 
 148  112    19 M40-44   34 Kristofr Morgan         43  M  Colorado Springs     CO 0:27:02  0:26:40 0:08:20  
 150  113    17 M45-49  135 Ben Schultz             49  M  Colorado Springs     CO 0:27:03  0:26:45 0:08:22  
 155  114    20 M35-39 1635 Adam Hertel             39  M  Colorado Springs     CO 0:27:15  0:26:51 0:08:23  
 156  115    14 M30-34  289 Aaron Paul              33  M  Colorado Springs     CO 0:27:02  0:26:53 0:08:24  
 157  116     9 M55-59 1611 Kenneth Grace           56  M  Colorado Springs     CO 0:27:13  0:26:56 0:08:25 AltiDudes 2.0 
 160  117    20 M40-44  244 David Williams          41  M  Colorado Springs     CO 0:27:29  0:27:05 0:08:28  
 162  118    18 M45-49 1147 Heath Christianson      46  M  Colorado Springs     CO 0:27:24  0:27:12 0:08:30  
 165  119    10 M55-59  577 Michael Boice           55  M  Colorado Springs     CO 0:27:44  0:27:23 0:08:33 AltiDudes 2.0 
 167  120     4 M65-69  211 Mark Toupin             65  M  Colorado Springs     CO 0:27:39  0:27:25 0:08:34  

OPlc GPlc AGPlc AGrp   Bib  Name                   Age Sex City                 St Gun      Chip    Pace    TeamName                     
 168  121    11 M55-59  151 Larry Seidman           56  M  Colorado Springs     CO 0:27:34  0:27:27 0:08:35 Team Rosco 
 169  122    15 M30-34  237 William Weldon          30  M  Colorado Springs     CO 0:27:53  0:27:27 0:08:35  
 171  123    12 M55-59  169 Stephen A Shumway       59  M  Colorado Springs     CO 0:27:48  0:27:34 0:08:37  
 172  124    16 M30-34  142 Lincoln Scott           30  M  Colorado Springs     CO 0:27:51  0:27:35 0:08:37  
 176  125    17 M30-34   36 Luke Agrimson           31  M  Colorado Springs     CO 0:28:18  0:27:46 0:08:41  
 178  126    19 M45-49  272 John Rettig             49  M  Colorado Springs     CO 0:28:11  0:27:48 0:08:41  
 180  127    21 M35-39 1592 Dave Fitzjarrell        37  M  Colorado Springs     CO 0:28:08  0:27:50 0:08:42  
 184  128    22 M35-39 1610 Kevin Glaspie           37  M  Colorado Springs     CO 0:28:30  0:27:57 0:08:44  
 188  129    16 M50-54  180 John Slaughter          53  M  Woodland Park        CO 0:28:43  0:28:08 0:08:48  
 189  130    13 M55-59   99 Robert Ronas            55  M  Divide               CO 0:28:22  0:28:13 0:08:49  
 190  131    18 M30-34 1578 Jared Doke              33  M  Colorado Springs     CO 0:29:02  0:28:14 0:08:49  
 192  132     3 M60-64  207 Eric Thomas             64  M  Colorado Springs     CO 0:28:52  0:28:17 0:08:50  
 195  133    20 M45-49   41 Joy Nandi               48  M  Colorado Springs     CO 0:29:06  0:28:28 0:08:54 Mordedcai 
 196  134    14 M55-59   16 Eric McNeil             58  M  Colorado Springs     CO 0:29:12  0:28:32 0:08:55 Herd of Nerds 
 197  135    21 M40-44  260 Jason Daily             44  M  Colorado Springs     CO 0:28:45  0:28:33 0:08:55  
 198  136     1 M70-74  122 Stephen Sager           72  M  Colorado Springs     CO 0:28:48  0:28:35 0:08:56  
 201  137    23 M35-39  133 Scott Schofield         38  M  Colorado Springs     CO 0:28:59  0:28:40 0:08:58  
 202  138    15 M55-59 1066 Kenneth Buckey          57  M  Colorado Springs     CO 0:28:54  0:28:43 0:08:58  
 210  139    17 M50-54 1675 Michael Leonard         53  M  Colorado Springs     CO 0:29:15  0:29:04 0:09:05  
 211  140    24 M35-39  208 Joshua Thomas           37  M  Colorado Springs     CO 0:29:33  0:29:11 0:09:07  

OPlc GPlc AGPlc AGrp   Bib  Name                   Age Sex City                 St Gun      Chip    Pace    TeamName                     
 212  141     5 M65-69 1572 Thomas Declue           66  M  Elbert               CO 0:30:08  0:29:13 0:09:08  
 221  142    25 M35-39    1 Logan Maldonado         37  M  Colorado Springs     CO 0:30:13  0:29:39 0:09:16  
 222  143    18 M50-54  107 Walter Roy              52  M  Colorado Springs     CO 0:30:12  0:29:39 0:09:16 SAAKI 
 225  144     6 M65-69  412 Marcus Beyerle          67  M  Colorado Springs     CO 0:30:20  0:29:44 0:09:18  
 227  145    19 M50-54 1011 Scott Brooks            54  M  Manitou Springs      CO 0:30:31  0:29:49 0:09:19  
 229  146    19 M30-34 1103 Winslow Cady            32  M  Colorado Springs     CO 0:30:18  0:29:52 0:09:20  
 232  147     7 M65-69 1120 Luke Cammack            66  M  Colorado Springs     CO 0:30:24  0:29:57 0:09:22  
 234  148    21 M45-49 1670 Adam Kosofsky           46  M  Woodland Park        CO 0:30:43  0:29:58 0:09:22  
 235  149    22 M40-44  186 Justin Spurlin          41  M  Colorado Springs     CO 0:30:40  0:30:03 0:09:23  
 236  150    20 M50-54 1576 Ivan Diaz               53  M  Peyton               CO 0:30:41  0:30:03 0:09:23  
 237  151    23 M40-44  280 Stephan Archer          43  M  Colorado Springs     CO 0:30:25  0:30:05 0:09:24  
 240  152    26 M35-39   81 Jeremy Rickard          39  M  Colorado Springs     CO 0:30:50  0:30:14 0:09:27  
 246  153     2 M70-74  230 Darrell Weaver          73  M  Colorado Springs     CO 0:30:42  0:30:28 0:09:31  
 247  154     6 M20-24  121 Freddy Baca             24  M  Colorado Springs     CO 0:30:58  0:30:36 0:09:34  
 250  155    16 M55-59 1575 Paul Deniston           57  M  Colorado Springs     CO 0:31:22  0:30:44 0:09:36  
 257  156    17 M55-59   52 Kennye Parkos           57  M  Colorado Springs     CO 0:31:39  0:31:05 0:09:43  
 258  157    18 M55-59  164 Stuart Shelton          57  M  Colorado Springs     CO 0:31:32  0:31:05 0:09:43  
 264  158     3 M70-74  192 Jim Beckenhaupt         72  M  Colorado Springs     CO 0:31:40  0:31:25 0:09:49  
 267  159    19 M55-59 1613 Ed Gritters             55  M  Colorado Springs     CO 0:31:45  0:31:32 0:09:51  
 268  160    24 M40-44  251 Mark Zandarski          43  M  Colorado Springs     CO 0:32:08  0:31:32 0:09:51  

OPlc GPlc AGPlc AGrp   Bib  Name                   Age Sex City                 St Gun      Chip    Pace    TeamName                     
 270  161    21 M50-54 1620 Bill Hallam             54  M  Colorado Springs     CO 0:32:00  0:31:34 0:09:52  
 271  162     8 M65-69  276 John Vohland            67  M  Black Forest         CO 0:32:05  0:31:36 0:09:53  
 275  163    22 M45-49 1634 Larry Herr              49  M  Colorado Springs     CO 0:32:09  0:31:48 0:09:56  
 277  164    20 M30-34    6 Gregory Maruzzella      33  M  Colorado Springs     CO 0:33:00  0:32:08 0:10:03  
 281  165    23 M45-49 1584 Greg Earhart            48  M  Colorado Springs     CO 0:32:48  0:32:29 0:10:09  
 292  166     4 M15-19  467 Alexander Bliss         17  M  Colorado Springs     CO 0:33:49  0:33:09 0:10:22  
 293  167    27 M35-39  331 Michael Berlin          36  M  Denver               CO 0:33:34  0:33:12 0:10:23  
 295  168    25 M40-44 1673 Matt Laubhan            43  M  Colorado Springs     CO 0:34:03  0:33:17 0:10:24  
 296  169     9 M65-69 1259 John Crouse             69  M  Monument             CO 0:34:00  0:33:19 0:10:25  
 298  170     1 M80-84  106 Glen Ash                82  M  Colorado Springs     CO 0:33:45  0:33:22 0:10:26  
 299  171    20 M55-59  288 Rory Lewis              58  M  Colorado Springs     CO 0:33:51  0:33:26 0:10:27  
 302  172    21 M30-34   59 Derek Peloquin          30  M  Mason                OH 0:34:28  0:33:49 0:10:34  
 307  173    21 M55-59  291 David Sweetman          57  M  Colorado Springs     CO 0:34:30  0:34:03 0:10:38  
 308  174    24 M45-49 1577 David Divine            49  M  Colorado Springs     CO 0:34:27  0:34:03 0:10:38  
 309  175    22 M50-54  236 Christopher Welch       51  M  Palmer Lake          CO 0:34:19  0:34:04 0:10:39  
 310  176     4 M70-74 1666 Chuck Koehler           72  M  Colorado Springs     CO 0:34:54  0:34:12 0:10:41  
 312  177    23 M50-54 1581 James Driscoll          52  M  Falcon               CO 0:34:36  0:34:20 0:10:44  
 314  178    28 M35-39   80 Timothy Altizer         36  M  Colorado Springs     CO 0:35:02  0:34:37 0:10:49  
 316  179    10 M25-29  137 Nick Baca               25  M  Colorado Springs     CO 0:35:15  0:34:41 0:10:50  
 318  180     5 M70-74 1637 Vance Hewuse            73  M  Colorado Springs     CO 0:35:55  0:35:14 0:11:01  

OPlc GPlc AGPlc AGrp   Bib  Name                   Age Sex City                 St Gun      Chip    Pace    TeamName                     
 319  181    22 M30-34  254 Jonathan Zinn           31  M  Colorado Springs     CO 0:35:51  0:35:20 0:11:03  
 321  182    29 M35-39   18 Harsha Medu             38  M  Colorado Springs     CO 0:36:00  0:35:24 0:11:04  
 324  183    30 M35-39  108 Benjamin Royall         39  M  Colorado Springs     CO 0:36:40  0:36:06 0:11:17  
 325  184    26 M40-44   90 Jeremy Anderson         41  M  Colorado Springs     CO 0:36:51  0:36:10 0:11:18 Herd of Nerds 
 327  185    22 M55-59 1640 Robert Holsworth        58  M  Peyton               CO 0:37:12  0:36:18 0:11:21  
 337  186    23 M55-59   20 Joseph Mendygral        57  M  Colorado Springs     CO 0:38:41  0:38:24 0:12:00  
 339  187    27 M40-44 1697 Luc MacArthur           41  M  Colorado Springs     CO 0:39:14  0:38:40 0:12:05  
 343  188     1 M75-79  218 John Vomastic           76  M  Manitou Springs      CO 0:39:51  0:39:02 0:12:12  
 345  189    24 M50-54 1156 Randall Coan            53  M  Colorado Springs     CO 0:40:22  0:39:41 0:12:24 Atrevida 
 348  190    23 M30-34 1627 Andrew Hedden           32  M  Colorado Springs     CO 0:40:39  0:40:03 0:12:31  
 349  191     5 M15-19 1603 Jerrod Gallup           15  M  Colorado Springs     CO 0:40:53  0:40:13 0:12:34  
 350  192    25 M50-54  205 Kenneth Tell            53  M  Colorado Springs     CO 0:41:06  0:40:19 0:12:36  
 354  193    25 M45-49  243 Dwain Wilkerson         45  M  Colorado Springs     CO 0:42:09  0:41:46 0:13:03  
 357  194    26 M50-54 1602 Jeff Gallup             54  M  Colorado Springs     CO 0:43:41  0:43:02 0:13:27  
 358  195     6 M15-19  265 Justin Marshall         18  M  Colorado Springs     CO 0:44:18  0:43:29 0:13:35  
 360  196    27 M50-54  304 Donovan Routsis         50  M  Peyton               CO 0:44:20  0:43:33 0:13:37 Black Forest Brewing Company 
 363  197    24 M55-59  242 Greg Wilborn            55  M  Monument             CO 0:44:47  0:43:55 0:13:43  
 369  198    28 M50-54 1658 Kraig Keller            53  M  Colorado Springs     CO 0:45:26  0:44:35 0:13:56  
 373  199    29 M50-54  224 Steve Warmingham        51  M  Colorado Springs     CO 0:47:12  0:46:24 0:14:30  
 374  200    26 M45-49  521 B. Jay Bliss            46  M  Colorado Springs     CO 0:47:19  0:46:34 0:14:33  

OPlc GPlc AGPlc AGrp   Bib  Name                   Age Sex City                 St Gun      Chip    Pace    TeamName                     
 375  201    30 M50-54  222 Sam Waller              52  M  Colorado Springs     CO 0:47:19  0:46:35 0:14:33  
 377  202    24 M30-34 1594 Damien Ford             30  M  Colorado Springs     CO 0:48:02  0:47:09 0:14:44  
 381  203    25 M55-59  308 Breck Warner            55  M  Colorado Springs     CO 0:49:42  0:48:59 0:15:18  
 388  204    26 M55-59 1585 Richard Emond           57  M  Canon City           CO -0:19:02 1:12:00 0:22:30